Terminal Aerodrome Forecast
Issued by NWS Lubbock, TX

Home | Current Version | Previous Version | Text Only | Print | Product List | Glossary On
Versions: 1 2 3 4 5 6 7 8 9 10 11 12 13 14 15
000
FTUS44 KLUB 250842 AAA
TAFLBB
TAF AMD
KLBB 250842Z 2509/2606 02024G31KT P6SM OVC025
     FM251100 02020G30KT P6SM -SHRA OVC020
     FM251400 01018KT P6SM OVC040
     FM251900 01011KT P6SM SCT050=

USA.gov is the U.S. government's official web portal to all federal, state and local government web resources and services.